sensor_id;sensor_type;location;lat;lon;timestamp;P1;durP1;ratioP1;P2;durP2;ratioP2
7835;SDS011;3963;42.658;23.298;2023-08-20T00:02:01;8.80;;;5.83;;
7835;SDS011;3963;42.658;23.298;2023-08-20T00:04:29;11.20;;;6.00;;
7835;SDS011;3963;42.658;23.298;2023-08-20T00:06:58;10.03;;;6.43;;
7835;SDS011;3963;42.658;23.298;2023-08-20T00:09:26;7.80;;;5.60;;
7835;SDS011;3963;42.658;23.298;2023-08-20T00:11:54;6.80;;;6.10;;
7835;SDS011;3963;42.658;23.298;2023-08-20T00:14:21;8.17;;;6.10;;
7835;SDS011;3963;42.658;23.298;2023-08-20T00:17:22;7.87;;;6.00;;
7835;SDS011;3963;42.658;23.298;2023-08-20T00:19:52;8.60;;;5.70;;
7835;SDS011;3963;42.658;23.298;2023-08-20T00:22:21;8.83;;;6.57;;
7835;SDS011;3963;42.658;23.298;2023-08-20T00:24:50;12.60;;;6.43;;
7835;SDS011;3963;42.658;23.298;2023-08-20T00:27:17;8.47;;;6.63;;
7835;SDS011;3963;42.658;23.298;2023-08-20T00:29:44;10.80;;;6.47;;
7835;SDS011;3963;42.658;23.298;2023-08-20T00:32:11;9.33;;;7.10;;
7835;SDS011;3963;42.658;23.298;2023-08-20T00:34:38;8.20;;;6.80;;
7835;SDS011;3963;42.658;23.298;2023-08-20T00:37:05;10.20;;;5.97;;
7835;SDS011;3963;42.658;23.298;2023-08-20T00:39:32;8.87;;;6.90;;
7835;SDS011;3963;42.658;23.298;2023-08-20T00:42:00;8.57;;;6.90;;
7835;SDS011;3963;42.658;23.298;2023-08-20T00:44:27;9.93;;;6.70;;
7835;SDS011;3963;42.658;23.298;2023-08-20T00:46:54;9.97;;;7.30;;
7835;SDS011;3963;42.658;23.298;2023-08-20T00:49:21;9.03;;;6.70;;
7835;SDS011;3963;42.658;23.298;2023-08-20T00:51:49;10.20;;;6.90;;
7835;SDS011;3963;42.658;23.298;2023-08-20T00:54:16;9.73;;;7.07;;
7835;SDS011;3963;42.658;23.298;2023-08-20T00:56:44;8.70;;;6.93;;
7835;SDS011;3963;42.658;23.298;2023-08-20T00:59:12;10.60;;;7.57;;
7835;SDS011;3963;42.658;23.298;2023-08-20T01:01:40;8.73;;;7.03;;
7835;SDS011;3963;42.658;23.298;2023-08-20T01:04:06;11.80;;;7.43;;
7835;SDS011;3963;42.658;23.298;2023-08-20T01:06:36;11.07;;;7.93;;
7835;SDS011;3963;42.658;23.298;2023-08-20T01:09:12;8.27;;;6.63;;
7835;SDS011;3963;42.658;23.298;2023-08-20T01:11:49;9.80;;;7.27;;
7835;SDS011;3963;42.658;23.298;2023-08-20T01:14:24;8.83;;;7.43;;
7835;SDS011;3963;42.658;23.298;2023-08-20T01:16:51;9.17;;;7.00;;
7835;SDS011;3963;42.658;23.298;2023-08-20T01:19:19;10.60;;;7.17;;
7835;SDS011;3963;42.658;23.298;2023-08-20T01:21:55;10.03;;;7.47;;
7835;SDS011;3963;42.658;23.298;2023-08-20T01:24:38;9.17;;;7.33;;
7835;SDS011;3963;42.658;23.298;2023-08-20T01:27:24;11.60;;;7.40;;
7835;SDS011;3963;42.658;23.298;2023-08-20T01:29:59;11.27;;;8.87;;
7835;SDS011;3963;42.658;23.298;2023-08-20T01:32:28;10.77;;;9.37;;
7835;SDS011;3963;42.658;23.298;2023-08-20T01:34:55;16.20;;;10.20;;
7835;SDS011;3963;42.658;23.298;2023-08-20T01:37:22;12.90;;;9.00;;
7835;SDS011;3963;42.658;23.298;2023-08-20T01:39:49;10.63;;;9.20;;
7835;SDS011;3963;42.658;23.298;2023-08-20T01:42:16;15.60;;;9.17;;
7835;SDS011;3963;42.658;23.298;2023-08-20T01:44:44;11.00;;;8.47;;
7835;SDS011;3963;42.658;23.298;2023-08-20T01:47:13;9.70;;;7.80;;
7835;SDS011;3963;42.658;23.298;2023-08-20T01:49:40;10.73;;;8.10;;
7835;SDS011;3963;42.658;23.298;2023-08-20T01:52:07;10.03;;;7.80;;
7835;SDS011;3963;42.658;23.298;2023-08-20T01:54:34;8.83;;;7.57;;
7835;SDS011;3963;42.658;23.298;2023-08-20T01:57:01;9.63;;;8.23;;
7835;SDS011;3963;42.658;23.298;2023-08-20T01:59:28;11.50;;;6.83;;
7835;SDS011;3963;42.658;23.298;2023-08-20T02:01:55;9.87;;;7.53;;
7835;SDS011;3963;42.658;23.298;2023-08-20T02:04:25;13.57;;;7.77;;
7835;SDS011;3963;42.658;23.298;2023-08-20T02:06:53;12.80;;;7.83;;
7835;SDS011;3963;42.658;23.298;2023-08-20T02:09:19;11.77;;;9.03;;
7835;SDS011;3963;42.658;23.298;2023-08-20T02:11:46;9.30;;;7.43;;
7835;SDS011;3963;42.658;23.298;2023-08-20T02:14:13;8.57;;;7.30;;
7835;SDS011;3963;42.658;23.298;2023-08-20T02:16:39;10.33;;;7.30;;
7835;SDS011;3963;42.658;23.298;2023-08-20T02:19:06;9.90;;;8.10;;
7835;SDS011;3963;42.658;23.298;2023-08-20T02:21:35;9.57;;;7.63;;
7835;SDS011;3963;42.658;23.298;2023-08-20T02:24:02;9.37;;;6.80;;
7835;SDS011;3963;42.658;23.298;2023-08-20T02:26:29;9.40;;;8.20;;
7835;SDS011;3963;42.658;23.298;2023-08-20T02:28:56;11.63;;;7.83;;
7835;SDS011;3963;42.658;23.298;2023-08-20T02:31:23;10.07;;;7.73;;
7835;SDS011;3963;42.658;23.298;2023-08-20T02:33:49;11.07;;;7.17;;
7835;SDS011;3963;42.658;23.298;2023-08-20T02:36:16;10.17;;;8.30;;
7835;SDS011;3963;42.658;23.298;2023-08-20T02:38:45;11.30;;;7.47;;
7835;SDS011;3963;42.658;23.298;2023-08-20T02:41:12;11.20;;;7.50;;
7835;SDS011;3963;42.658;23.298;2023-08-20T02:43:39;11.80;;;7.83;;
7835;SDS011;3963;42.658;23.298;2023-08-20T02:46:06;8.20;;;7.33;;
7835;SDS011;3963;42.658;23.298;2023-08-20T02:48:33;11.60;;;7.17;;
7835;SDS011;3963;42.658;23.298;2023-08-20T02:50:59;9.20;;;7.77;;
7835;SDS011;3963;42.658;23.298;2023-08-20T02:53:26;9.40;;;7.47;;
7835;SDS011;3963;42.658;23.298;2023-08-20T02:55:55;14.23;;;7.93;;
7835;SDS011;3963;42.658;23.298;2023-08-20T02:58:22;11.50;;;7.97;;
7835;SDS011;3963;42.658;23.298;2023-08-20T03:00:50;9.00;;;7.57;;
7835;SDS011;3963;42.658;23.298;2023-08-20T03:03:18;10.53;;;7.40;;
7835;SDS011;3963;42.658;23.298;2023-08-20T03:05:45;9.37;;;7.63;;
7835;SDS011;3963;42.658;23.298;2023-08-20T03:08:11;10.50;;;8.17;;
7835;SDS011;3963;42.658;23.298;2023-08-20T03:10:38;11.53;;;8.23;;
7835;SDS011;3963;42.658;23.298;2023-08-20T03:13:06;14.20;;;8.50;;
7835;SDS011;3963;42.658;23.298;2023-08-20T03:15:33;10.03;;;8.23;;
7835;SDS011;3963;42.658;23.298;2023-08-20T03:18:01;10.80;;;8.27;;
7835;SDS011;3963;42.658;23.298;2023-08-20T03:20:28;11.10;;;8.13;;
7835;SDS011;3963;42.658;23.298;2023-08-20T03:22:56;11.13;;;7.87;;
7835;SDS011;3963;42.658;23.298;2023-08-20T03:25:23;13.57;;;8.10;;
7835;SDS011;3963;42.658;23.298;2023-08-20T03:27:51;10.57;;;8.40;;
7835;SDS011;3963;42.658;23.298;2023-08-20T03:30:20;14.10;;;8.87;;
7835;SDS011;3963;42.658;23.298;2023-08-20T03:32:47;13.77;;;7.60;;
7835;SDS011;3963;42.658;23.298;2023-08-20T03:35:14;17.97;;;8.43;;
7835;SDS011;3963;42.658;23.298;2023-08-20T03:37:41;14.90;;;8.10;;
7835;SDS011;3963;42.658;23.298;2023-08-20T03:40:08;18.10;;;9.03;;
7835;SDS011;3963;42.658;23.298;2023-08-20T03:42:36;19.50;;;9.10;;
7835;SDS011;3963;42.658;23.298;2023-08-20T03:45:03;34.67;;;10.27;;
7835;SDS011;3963;42.658;23.298;2023-08-20T03:47:31;14.97;;;9.30;;
7835;SDS011;3963;42.658;23.298;2023-08-20T03:49:58;25.33;;;9.37;;
7835;SDS011;3963;42.658;23.298;2023-08-20T03:52:26;21.70;;;9.40;;
7835;SDS011;3963;42.658;23.298;2023-08-20T03:54:53;27.40;;;9.33;;
7835;SDS011;3963;42.658;23.298;2023-08-20T03:57:20;21.17;;;9.07;;
7835;SDS011;3963;42.658;23.298;2023-08-20T03:59:47;60.67;;;11.53;;
7835;SDS011;3963;42.658;23.298;2023-08-20T04:02:14;37.70;;;9.80;;
7835;SDS011;3963;42.658;23.298;2023-08-20T04:04:43;38.03;;;11.03;;
7835;SDS011;3963;42.658;23.298;2023-08-20T04:07:10;24.20;;;9.93;;
7835;SDS011;3963;42.658;23.298;2023-08-20T04:09:37;21.03;;;9.47;;
7835;SDS011;3963;42.658;23.298;2023-08-20T04:12:04;16.50;;;9.23;;
7835;SDS011;3963;42.658;23.298;2023-08-20T04:14:31;17.57;;;9.40;;
7835;SDS011;3963;42.658;23.298;2023-08-20T04:16:58;12.40;;;8.50;;
7835;SDS011;3963;42.658;23.298;2023-08-20T04:19:25;15.83;;;9.43;;
7835;SDS011;3963;42.658;23.298;2023-08-20T04:21:53;12.30;;;8.67;;
7835;SDS011;3963;42.658;23.298;2023-08-20T04:24:20;11.30;;;9.53;;
7835;SDS011;3963;42.658;23.298;2023-08-20T04:26:47;11.83;;;8.13;;
7835;SDS011;3963;42.658;23.298;2023-08-20T04:29:14;11.60;;;8.53;;
7835;SDS011;3963;42.658;23.298;2023-08-20T04:31:41;11.30;;;9.03;;
7835;SDS011;3963;42.658;23.298;2023-08-20T04:34:08;14.03;;;9.47;;
7835;SDS011;3963;42.658;23.298;2023-08-20T04:36:34;10.27;;;8.27;;
7835;SDS011;3963;42.658;23.298;2023-08-20T04:39:03;12.40;;;8.30;;
7835;SDS011;3963;42.658;23.298;2023-08-20T04:41:30;12.17;;;9.03;;
7835;SDS011;3963;42.658;23.298;2023-08-20T04:43:56;13.83;;;8.90;;
7835;SDS011;3963;42.658;23.298;2023-08-20T04:46:23;10.50;;;8.63;;
7835;SDS011;3963;42.658;23.298;2023-08-20T04:48:50;11.90;;;8.90;;
7835;SDS011;3963;42.658;23.298;2023-08-20T04:51:17;12.40;;;8.60;;
7835;SDS011;3963;42.658;23.298;2023-08-20T04:53:44;12.80;;;8.60;;
7835;SDS011;3963;42.658;23.298;2023-08-20T04:56:14;15.87;;;8.87;;
7835;SDS011;3963;42.658;23.298;2023-08-20T04:58:40;17.73;;;9.13;;
7835;SDS011;3963;42.658;23.298;2023-08-20T05:01:07;20.53;;;9.47;;
7835;SDS011;3963;42.658;23.298;2023-08-20T05:03:34;21.07;;;9.47;;
7835;SDS011;3963;42.658;23.298;2023-08-20T05:06:01;19.80;;;8.80;;
7835;SDS011;3963;42.658;23.298;2023-08-20T05:08:28;20.30;;;9.67;;
7835;SDS011;3963;42.658;23.298;2023-08-20T05:10:55;22.43;;;9.60;;
7835;SDS011;3963;42.658;23.298;2023-08-20T05:13:23;21.63;;;9.20;;
7835;SDS011;3963;42.658;23.298;2023-08-20T05:15:50;16.07;;;9.23;;
7835;SDS011;3963;42.658;23.298;2023-08-20T05:18:16;15.77;;;9.30;;
7835;SDS011;3963;42.658;23.298;2023-08-20T05:20:43;16.10;;;10.03;;
7835;SDS011;3963;42.658;23.298;2023-08-20T05:23:10;17.23;;;10.00;;
7835;SDS011;3963;42.658;23.298;2023-08-20T05:25:37;14.00;;;10.20;;
7835;SDS011;3963;42.658;23.298;2023-08-20T05:28:03;15.73;;;10.47;;
7835;SDS011;3963;42.658;23.298;2023-08-20T05:30:32;13.93;;;10.20;;
7835;SDS011;3963;42.658;23.298;2023-08-20T05:32:58;14.00;;;9.43;;
7835;SDS011;3963;42.658;23.298;2023-08-20T05:35:25;14.63;;;9.70;;
7835;SDS011;3963;42.658;23.298;2023-08-20T05:37:53;16.93;;;9.53;;
7835;SDS011;3963;42.658;23.298;2023-08-20T05:40:20;13.53;;;9.17;;
7835;SDS011;3963;42.658;23.298;2023-08-20T05:42:46;12.60;;;8.50;;
7835;SDS011;3963;42.658;23.298;2023-08-20T05:45:13;13.10;;;8.63;;
7835;SDS011;3963;42.658;23.298;2023-08-20T05:47:41;9.73;;;8.63;;
7835;SDS011;3963;42.658;23.298;2023-08-20T05:50:08;13.60;;;9.57;;
7835;SDS011;3963;42.658;23.298;2023-08-20T05:52:35;14.60;;;9.80;;
7835;SDS011;3963;42.658;23.298;2023-08-20T05:55:02;11.60;;;9.00;;
7835;SDS011;3963;42.658;23.298;2023-08-20T05:57:31;17.00;;;9.63;;
7835;SDS011;3963;42.658;23.298;2023-08-20T05:59:58;13.23;;;9.20;;
7835;SDS011;3963;42.658;23.298;2023-08-20T06:02:25;13.23;;;8.67;;
7835;SDS011;3963;42.658;23.298;2023-08-20T06:04:55;14.57;;;8.63;;
7835;SDS011;3963;42.658;23.298;2023-08-20T06:07:22;8.17;;;7.37;;
7835;SDS011;3963;42.658;23.298;2023-08-20T06:09:49;11.23;;;8.07;;
7835;SDS011;3963;42.658;23.298;2023-08-20T06:12:16;11.57;;;7.70;;
7835;SDS011;3963;42.658;23.298;2023-08-20T06:14:42;11.63;;;7.57;;
7835;SDS011;3963;42.658;23.298;2023-08-20T06:17:09;9.53;;;7.47;;
7835;SDS011;3963;42.658;23.298;2023-08-20T06:19:36;11.70;;;7.73;;
7835;SDS011;3963;42.658;23.298;2023-08-20T06:22:07;9.60;;;7.70;;
7835;SDS011;3963;42.658;23.298;2023-08-20T06:24:34;12.00;;;7.70;;
7835;SDS011;3963;42.658;23.298;2023-08-20T06:27:00;10.97;;;7.70;;
7835;SDS011;3963;42.658;23.298;2023-08-20T06:29:27;12.23;;;8.40;;
7835;SDS011;3963;42.658;23.298;2023-08-20T06:31:54;9.90;;;7.57;;
7835;SDS011;3963;42.658;23.298;2023-08-20T06:34:21;9.40;;;7.43;;
7835;SDS011;3963;42.658;23.298;2023-08-20T06:36:47;12.40;;;7.97;;
7835;SDS011;3963;42.658;23.298;2023-08-20T06:39:19;10.03;;;7.40;;
7835;SDS011;3963;42.658;23.298;2023-08-20T06:41:46;9.33;;;7.60;;
7835;SDS011;3963;42.658;23.298;2023-08-20T06:44:13;12.27;;;7.83;;
7835;SDS011;3963;42.658;23.298;2023-08-20T06:46:40;13.03;;;6.93;;
7835;SDS011;3963;42.658;23.298;2023-08-20T06:49:07;10.33;;;6.80;;
7835;SDS011;3963;42.658;23.298;2023-08-20T06:51:34;10.70;;;6.70;;
7835;SDS011;3963;42.658;23.298;2023-08-20T06:54:03;10.03;;;6.30;;
7835;SDS011;3963;42.658;23.298;2023-08-20T06:56:33;11.13;;;6.87;;
7835;SDS011;3963;42.658;23.298;2023-08-20T06:59:00;8.17;;;6.53;;
7835;SDS011;3963;42.658;23.298;2023-08-20T07:01:28;12.53;;;6.67;;
7835;SDS011;3963;42.658;23.298;2023-08-20T07:03:54;8.40;;;5.43;;
7835;SDS011;3963;42.658;23.298;2023-08-20T07:06:21;11.63;;;6.23;;
7835;SDS011;3963;42.658;23.298;2023-08-20T07:08:49;6.63;;;5.67;;
7835;SDS011;3963;42.658;23.298;2023-08-20T07:11:16;6.87;;;6.00;;
7835;SDS011;3963;42.658;23.298;2023-08-20T07:13:44;6.50;;;5.77;;
7835;SDS011;3963;42.658;23.298;2023-08-20T07:16:11;7.50;;;5.53;;
7835;SDS011;3963;42.658;23.298;2023-08-20T07:18:37;8.57;;;5.93;;
7835;SDS011;3963;42.658;23.298;2023-08-20T07:21:04;8.40;;;5.70;;
7835;SDS011;3963;42.658;23.298;2023-08-20T07:23:32;7.57;;;5.70;;
7835;SDS011;3963;42.658;23.298;2023-08-20T07:26:06;7.40;;;5.70;;
7835;SDS011;3963;42.658;23.298;2023-08-20T07:28:34;9.17;;;5.47;;
7835;SDS011;3963;42.658;23.298;2023-08-20T07:31:20;8.77;;;6.00;;
7835;SDS011;3963;42.658;23.298;2023-08-20T07:33:47;8.67;;;6.37;;
7835;SDS011;3963;42.658;23.298;2023-08-20T07:36:13;8.67;;;6.27;;
7835;SDS011;3963;42.658;23.298;2023-08-20T07:38:41;8.83;;;5.87;;
7835;SDS011;3963;42.658;23.298;2023-08-20T07:41:08;10.47;;;5.77;;
7835;SDS011;3963;42.658;23.298;2023-08-20T07:43:36;10.73;;;6.17;;
7835;SDS011;3963;42.658;23.298;2023-08-20T07:46:03;11.37;;;5.97;;
7835;SDS011;3963;42.658;23.298;2023-08-20T07:48:33;8.10;;;6.33;;
7835;SDS011;3963;42.658;23.298;2023-08-20T07:51:00;10.63;;;6.07;;
7835;SDS011;3963;42.658;23.298;2023-08-20T07:53:27;11.90;;;5.73;;
7835;SDS011;3963;42.658;23.298;2023-08-20T07:55:54;6.70;;;5.57;;
7835;SDS011;3963;42.658;23.298;2023-08-20T07:58:21;6.30;;;5.37;;
7835;SDS011;3963;42.658;23.298;2023-08-20T08:00:48;5.83;;;5.23;;
7835;SDS011;3963;42.658;23.298;2023-08-20T08:03:16;11.13;;;5.30;;
7835;SDS011;3963;42.658;23.298;2023-08-20T08:05:47;9.80;;;5.88;;
7835;SDS011;3963;42.658;23.298;2023-08-20T08:08:15;6.15;;;5.50;;
7835;SDS011;3963;42.658;23.298;2023-08-20T08:10:42;7.03;;;5.32;;
7835;SDS011;3963;42.658;23.298;2023-08-20T08:13:10;5.85;;;5.03;;
7835;SDS011;3963;42.658;23.298;2023-08-20T08:15:38;7.40;;;5.47;;
7835;SDS011;3963;42.658;23.298;2023-08-20T08:18:05;7.00;;;4.95;;
7835;SDS011;3963;42.658;23.298;2023-08-20T08:20:32;9.02;;;4.80;;
7835;SDS011;3963;42.658;23.298;2023-08-20T08:23:01;6.30;;;5.25;;
7835;SDS011;3963;42.658;23.298;2023-08-20T08:25:28;7.93;;;5.38;;
7835;SDS011;3963;42.658;23.298;2023-08-20T08:27:55;7.45;;;4.22;;
7835;SDS011;3963;42.658;23.298;2023-08-20T08:30:22;7.07;;;5.60;;
7835;SDS011;3963;42.658;23.298;2023-08-20T08:32:49;5.47;;;4.72;;
7835;SDS011;3963;42.658;23.298;2023-08-20T08:35:17;5.43;;;4.90;;
7835;SDS011;3963;42.658;23.298;2023-08-20T08:37:44;7.82;;;4.95;;
7835;SDS011;3963;42.658;23.298;2023-08-20T08:40:12;7.07;;;4.82;;
7835;SDS011;3963;42.658;23.298;2023-08-20T08:42:40;8.80;;;4.80;;
7835;SDS011;3963;42.658;23.298;2023-08-20T08:45:08;6.95;;;4.43;;
7835;SDS011;3963;42.658;23.298;2023-08-20T08:47:36;7.03;;;4.28;;
7835;SDS011;3963;42.658;23.298;2023-08-20T08:50:05;5.63;;;4.40;;
7835;SDS011;3963;42.658;23.298;2023-08-20T08:52:33;4.80;;;4.30;;
7835;SDS011;3963;42.658;23.298;2023-08-20T08:55:03;5.38;;;4.65;;
7835;SDS011;3963;42.658;23.298;2023-08-20T08:57:34;6.20;;;4.55;;
7835;SDS011;3963;42.658;23.298;2023-08-20T09:00:01;5.25;;;3.90;;
7835;SDS011;3963;42.658;23.298;2023-08-20T09:02:28;4.72;;;4.05;;
7835;SDS011;3963;42.658;23.298;2023-08-20T09:04:55;4.68;;;3.90;;
7835;SDS011;3963;42.658;23.298;2023-08-20T09:07:24;6.25;;;4.13;;
7835;SDS011;3963;42.658;23.298;2023-08-20T09:09:56;6.10;;;3.80;;
7835;SDS011;3963;42.658;23.298;2023-08-20T09:12:24;5.10;;;3.70;;
7835;SDS011;3963;42.658;23.298;2023-08-20T09:14:53;8.48;;;4.40;;
7835;SDS011;3963;42.658;23.298;2023-08-20T09:17:24;7.00;;;3.90;;
7835;SDS011;3963;42.658;23.298;2023-08-20T09:19:51;4.43;;;3.80;;
7835;SDS011;3963;42.658;23.298;2023-08-20T09:22:21;5.55;;;4.22;;
7835;SDS011;3963;42.658;23.298;2023-08-20T09:24:52;4.13;;;3.72;;
7835;SDS011;3963;42.658;23.298;2023-08-20T09:27:21;5.13;;;4.28;;
7835;SDS011;3963;42.658;23.298;2023-08-20T09:29:48;7.35;;;3.83;;
7835;SDS011;3963;42.658;23.298;2023-08-20T09:32:17;4.45;;;4.05;;
7835;SDS011;3963;42.658;23.298;2023-08-20T09:34:46;4.80;;;3.80;;
7835;SDS011;3963;42.658;23.298;2023-08-20T09:37:14;5.32;;;4.13;;
7835;SDS011;3963;42.658;23.298;2023-08-20T09:39:42;6.97;;;3.95;;
7835;SDS011;3963;42.658;23.298;2023-08-20T09:42:10;4.53;;;3.97;;
7835;SDS011;3963;42.658;23.298;2023-08-20T09:44:38;4.45;;;3.70;;
7835;SDS011;3963;42.658;23.298;2023-08-20T09:47:06;4.25;;;3.85;;
7835;SDS011;3963;42.658;23.298;2023-08-20T09:49:41;4.38;;;3.80;;
7835;SDS011;3963;42.658;23.298;2023-08-20T09:52:11;4.20;;;3.58;;
7835;SDS011;3963;42.658;23.298;2023-08-20T09:54:49;4.63;;;3.50;;
7835;SDS011;3963;42.658;23.298;2023-08-20T09:57:23;7.03;;;4.15;;
7835;SDS011;3963;42.658;23.298;2023-08-20T09:59:55;5.22;;;3.90;;
7835;SDS011;3963;42.658;23.298;2023-08-20T10:02:22;6.53;;;3.60;;
7835;SDS011;3963;42.658;23.298;2023-08-20T10:04:52;5.20;;;3.72;;
7835;SDS011;3963;42.658;23.298;2023-08-20T10:07:19;4.90;;;3.45;;
7835;SDS011;3963;42.658;23.298;2023-08-20T10:09:49;5.65;;;3.35;;
7835;SDS011;3963;42.658;23.298;2023-08-20T10:12:17;4.53;;;3.90;;
7835;SDS011;3963;42.658;23.298;2023-08-20T10:14:45;3.50;;;3.20;;
7835;SDS011;3963;42.658;23.298;2023-08-20T10:17:12;3.35;;;3.05;;
7835;SDS011;3963;42.658;23.298;2023-08-20T10:19:40;7.50;;;3.00;;
7835;SDS011;3963;42.658;23.298;2023-08-20T10:22:09;3.20;;;2.90;;
7835;SDS011;3963;42.658;23.298;2023-08-20T10:24:41;5.55;;;3.25;;
7835;SDS011;3963;42.658;23.298;2023-08-20T10:27:13;6.78;;;3.65;;
7835;SDS011;3963;42.658;23.298;2023-08-20T10:29:52;3.70;;;3.10;;
7835;SDS011;3963;42.658;23.298;2023-08-20T10:32:19;3.45;;;3.15;;
7835;SDS011;3963;42.658;23.298;2023-08-20T10:34:50;5.03;;;3.00;;
7835;SDS011;3963;42.658;23.298;2023-08-20T10:37:27;6.53;;;3.72;;
7835;SDS011;3963;42.658;23.298;2023-08-20T10:39:54;3.88;;;3.10;;
7835;SDS011;3963;42.658;23.298;2023-08-20T10:42:25;4.47;;;4.05;;
7835;SDS011;3963;42.658;23.298;2023-08-20T10:44:59;5.10;;;3.45;;
7835;SDS011;3963;42.658;23.298;2023-08-20T10:47:34;5.22;;;3.50;;
7835;SDS011;3963;42.658;23.298;2023-08-20T10:50:08;4.55;;;3.50;;
7835;SDS011;3963;42.658;23.298;2023-08-20T10:52:39;6.45;;;3.72;;
7835;SDS011;3963;42.658;23.298;2023-08-20T10:55:07;3.88;;;3.47;;
7835;SDS011;3963;42.658;23.298;2023-08-20T10:57:34;4.93;;;3.22;;
7835;SDS011;3963;42.658;23.298;2023-08-20T11:00:05;5.15;;;3.10;;
7835;SDS011;3963;42.658;23.298;2023-08-20T11:02:36;4.32;;;3.50;;
7835;SDS011;3963;42.658;23.298;2023-08-20T11:05:09;4.20;;;3.80;;
7835;SDS011;3963;42.658;23.298;2023-08-20T11:07:45;3.70;;;3.30;;
7835;SDS011;3963;42.658;23.298;2023-08-20T11:10:13;3.97;;;3.40;;
7835;SDS011;3963;42.658;23.298;2023-08-20T11:12:40;3.78;;;3.38;;
7835;SDS011;3963;42.658;23.298;2023-08-20T11:15:08;7.47;;;4.32;;
7835;SDS011;3963;42.658;23.298;2023-08-20T11:17:41;5.68;;;3.90;;
7835;SDS011;3963;42.658;23.298;2023-08-20T11:20:09;5.00;;;3.85;;
7835;SDS011;3963;42.658;23.298;2023-08-20T11:22:38;4.78;;;3.72;;
7835;SDS011;3963;42.658;23.298;2023-08-20T11:25:10;6.00;;;3.80;;
7835;SDS011;3963;42.658;23.298;2023-08-20T11:27:41;6.30;;;3.60;;
7835;SDS011;3963;42.658;23.298;2023-08-20T11:30:09;9.90;;;4.38;;
7835;SDS011;3963;42.658;23.298;2023-08-20T11:32:37;5.72;;;3.65;;
7835;SDS011;3963;42.658;23.298;2023-08-20T11:35:04;6.15;;;3.42;;
7835;SDS011;3963;42.658;23.298;2023-08-20T11:37:32;6.90;;;3.65;;
7835;SDS011;3963;42.658;23.298;2023-08-20T11:39:59;6.32;;;3.60;;
7835;SDS011;3963;42.658;23.298;2023-08-20T11:42:27;4.40;;;3.20;;
7835;SDS011;3963;42.658;23.298;2023-08-20T11:44:55;5.18;;;3.55;;
7835;SDS011;3963;42.658;23.298;2023-08-20T11:47:22;5.10;;;3.97;;
7835;SDS011;3963;42.658;23.298;2023-08-20T11:50:01;5.35;;;3.85;;
7835;SDS011;3963;42.658;23.298;2023-08-20T11:52:30;5.95;;;3.50;;
7835;SDS011;3963;42.658;23.298;2023-08-20T11:54:57;6.65;;;3.85;;
7835;SDS011;3963;42.658;23.298;2023-08-20T11:57:24;4.68;;;3.78;;
7835;SDS011;3963;42.658;23.298;2023-08-20T11:59:54;4.15;;;3.75;;
7835;SDS011;3963;42.658;23.298;2023-08-20T12:02:24;4.32;;;3.90;;
7835;SDS011;3963;42.658;23.298;2023-08-20T12:04:54;5.93;;;3.60;;
7835;SDS011;3963;42.658;23.298;2023-08-20T12:07:24;5.15;;;4.18;;
7835;SDS011;3963;42.658;23.298;2023-08-20T12:09:52;5.60;;;3.55;;
7835;SDS011;3963;42.658;23.298;2023-08-20T12:12:19;5.00;;;4.20;;
7835;SDS011;3963;42.658;23.298;2023-08-20T12:14:46;5.53;;;3.88;;
7835;SDS011;3963;42.658;23.298;2023-08-20T12:17:18;5.07;;;3.58;;
7835;SDS011;3963;42.658;23.298;2023-08-20T12:19:46;5.55;;;3.92;;
7835;SDS011;3963;42.658;23.298;2023-08-20T12:22:13;6.03;;;4.00;;
7835;SDS011;3963;42.658;23.298;2023-08-20T12:24:39;5.20;;;4.40;;
7835;SDS011;3963;42.658;23.298;2023-08-20T12:27:06;5.25;;;4.15;;
7835;SDS011;3963;42.658;23.298;2023-08-20T12:29:33;4.32;;;3.83;;
7835;SDS011;3963;42.658;23.298;2023-08-20T12:32:00;5.60;;;3.83;;
7835;SDS011;3963;42.658;23.298;2023-08-20T12:34:31;4.57;;;3.80;;
7835;SDS011;3963;42.658;23.298;2023-08-20T12:36:58;4.90;;;4.40;;
7835;SDS011;3963;42.658;23.298;2023-08-20T12:39:24;5.72;;;4.45;;
7835;SDS011;3963;42.658;23.298;2023-08-20T12:41:51;5.32;;;3.80;;
7835;SDS011;3963;42.658;23.298;2023-08-20T12:44:18;4.32;;;3.65;;
7835;SDS011;3963;42.658;23.298;2023-08-20T12:46:45;6.68;;;3.63;;
7835;SDS011;3963;42.658;23.298;2023-08-20T12:49:13;5.05;;;3.80;;
7835;SDS011;3963;42.658;23.298;2023-08-20T12:51:43;4.38;;;3.97;;
7835;SDS011;3963;42.658;23.298;2023-08-20T12:54:10;4.95;;;4.20;;
7835;SDS011;3963;42.658;23.298;2023-08-20T12:56:38;4.45;;;3.90;;
7835;SDS011;3963;42.658;23.298;2023-08-20T12:59:05;4.15;;;3.75;;
7835;SDS011;3963;42.658;23.298;2023-08-20T13:01:33;6.65;;;4.18;;
7835;SDS011;3963;42.658;23.298;2023-08-20T13:04:00;7.43;;;4.57;;
7835;SDS011;3963;42.658;23.298;2023-08-20T13:06:28;5.15;;;3.65;;
7835;SDS011;3963;42.658;23.298;2023-08-20T13:08:57;6.25;;;4.30;;
7835;SDS011;3963;42.658;23.298;2023-08-20T13:11:25;6.38;;;3.97;;
7835;SDS011;3963;42.658;23.298;2023-08-20T13:13:53;5.03;;;3.97;;
7835;SDS011;3963;42.658;23.298;2023-08-20T13:16:20;4.13;;;3.65;;
7835;SDS011;3963;42.658;23.298;2023-08-20T13:18:47;5.72;;;3.90;;
7835;SDS011;3963;42.658;23.298;2023-08-20T13:21:15;5.13;;;4.10;;
7835;SDS011;3963;42.658;23.298;2023-08-20T13:23:42;6.30;;;3.92;;
7835;SDS011;3963;42.658;23.298;2023-08-20T13:26:10;5.50;;;3.65;;
7835;SDS011;3963;42.658;23.298;2023-08-20T13:28:40;5.70;;;3.60;;
7835;SDS011;3963;42.658;23.298;2023-08-20T13:31:07;4.18;;;3.72;;
7835;SDS011;3963;42.658;23.298;2023-08-20T13:33:33;4.65;;;3.80;;
7835;SDS011;3963;42.658;23.298;2023-08-20T13:36:00;6.30;;;3.70;;
7835;SDS011;3963;42.658;23.298;2023-08-20T13:38:29;4.13;;;3.72;;
7835;SDS011;3963;42.658;23.298;2023-08-20T13:40:56;4.60;;;3.63;;
7835;SDS011;3963;42.658;23.298;2023-08-20T13:43:24;4.68;;;3.80;;
7835;SDS011;3963;42.658;23.298;2023-08-20T13:45:51;6.70;;;4.28;;
7835;SDS011;3963;42.658;23.298;2023-08-20T13:48:18;6.03;;;3.70;;
7835;SDS011;3963;42.658;23.298;2023-08-20T13:50:45;4.85;;;4.45;;
7835;SDS011;3963;42.658;23.298;2023-08-20T13:53:11;5.80;;;3.67;;
7835;SDS011;3963;42.658;23.298;2023-08-20T13:55:38;8.98;;;3.72;;
7835;SDS011;3963;42.658;23.298;2023-08-20T13:58:05;4.53;;;3.55;;
7835;SDS011;3963;42.658;23.298;2023-08-20T14:00:34;4.85;;;3.90;;
7835;SDS011;3963;42.658;23.298;2023-08-20T14:03:00;4.15;;;3.75;;
7835;SDS011;3963;42.658;23.298;2023-08-20T14:05:27;5.22;;;3.40;;
7835;SDS011;3963;42.658;23.298;2023-08-20T14:07:55;4.57;;;3.60;;
7835;SDS011;3963;42.658;23.298;2023-08-20T14:10:22;4.88;;;3.60;;
7835;SDS011;3963;42.658;23.298;2023-08-20T14:12:48;3.85;;;3.42;;
7835;SDS011;3963;42.658;23.298;2023-08-20T14:15:15;4.50;;;3.90;;
7835;SDS011;3963;42.658;23.298;2023-08-20T14:17:44;6.10;;;3.80;;
7835;SDS011;3963;42.658;23.298;2023-08-20T14:20:11;4.40;;;3.40;;
7835;SDS011;3963;42.658;23.298;2023-08-20T14:22:39;3.75;;;3.45;;
7835;SDS011;3963;42.658;23.298;2023-08-20T14:25:06;5.72;;;3.55;;
7835;SDS011;3963;42.658;23.298;2023-08-20T14:27:33;4.57;;;3.55;;
7835;SDS011;3963;42.658;23.298;2023-08-20T14:30:00;4.35;;;3.78;;
7835;SDS011;3963;42.658;23.298;2023-08-20T14:32:27;6.38;;;3.63;;
7835;SDS011;3963;42.658;23.298;2023-08-20T14:34:56;8.07;;;4.20;;
7835;SDS011;3963;42.658;23.298;2023-08-20T14:37:22;5.53;;;4.25;;
7835;SDS011;3963;42.658;23.298;2023-08-20T14:39:49;7.05;;;3.97;;
7835;SDS011;3963;42.658;23.298;2023-08-20T14:42:16;3.90;;;3.60;;
7835;SDS011;3963;42.658;23.298;2023-08-20T14:44:43;4.15;;;3.72;;
7835;SDS011;3963;42.658;23.298;2023-08-20T14:47:10;4.68;;;3.60;;
7835;SDS011;3963;42.658;23.298;2023-08-20T14:49:37;6.05;;;3.33;;
7835;SDS011;3963;42.658;23.298;2023-08-20T14:52:05;4.10;;;3.67;;
7835;SDS011;3963;42.658;23.298;2023-08-20T14:54:32;5.20;;;3.67;;
7835;SDS011;3963;42.658;23.298;2023-08-20T14:56:59;7.32;;;3.13;;
7835;SDS011;3963;42.658;23.298;2023-08-20T14:59:26;5.80;;;3.88;;
7835;SDS011;3963;42.658;23.298;2023-08-20T15:01:53;5.63;;;3.80;;